sensor_id;sensor_type;location;lat;lon;timestamp;P1;durP1;ratioP1;P2;durP2;ratioP2
21822;SDS011;11074;48.596;9.238;2022-09-17T00:01:00;1.10;;;0.45;;
21822;SDS011;11074;48.596;9.238;2022-09-17T00:03:27;2.42;;;0.55;;
21822;SDS011;11074;48.596;9.238;2022-09-17T00:06:09;0.70;;;0.50;;
21822;SDS011;11074;48.596;9.238;2022-09-17T00:08:37;3.17;;;0.73;;
21822;SDS011;11074;48.596;9.238;2022-09-17T00:11:09;2.47;;;0.60;;
21822;SDS011;11074;48.596;9.238;2022-09-17T00:13:48;0.70;;;0.50;;
21822;SDS011;11074;48.596;9.238;2022-09-17T00:16:27;1.60;;;0.60;;
21822;SDS011;11074;48.596;9.238;2022-09-17T00:18:57;1.10;;;0.60;;
21822;SDS011;11074;48.596;9.238;2022-09-17T00:21:24;3.20;;;0.60;;
21822;SDS011;11074;48.596;9.238;2022-09-17T00:23:58;2.17;;;0.60;;
21822;SDS011;11074;48.596;9.238;2022-09-17T00:26:27;1.83;;;0.50;;
21822;SDS011;11074;48.596;9.238;2022-09-17T00:28:56;2.95;;;0.60;;
21822;SDS011;11074;48.596;9.238;2022-09-17T00:31:23;2.17;;;0.70;;
21822;SDS011;11074;48.596;9.238;2022-09-17T00:33:50;0.50;;;0.40;;
21822;SDS011;11074;48.596;9.238;2022-09-17T00:36:16;1.30;;;0.47;;
21822;SDS011;11074;48.596;9.238;2022-09-17T00:38:47;0.88;;;0.60;;
21822;SDS011;11074;48.596;9.238;2022-09-17T00:41:18;0.55;;;0.40;;
21822;SDS011;11074;48.596;9.238;2022-09-17T00:43:47;0.70;;;0.40;;
21822;SDS011;11074;48.596;9.238;2022-09-17T00:46:23;2.20;;;0.45;;
21822;SDS011;11074;48.596;9.238;2022-09-17T00:49:15;0.77;;;0.40;;
21822;SDS011;11074;48.596;9.238;2022-09-17T00:51:59;2.33;;;0.57;;
21822;SDS011;11074;48.596;9.238;2022-09-17T00:54:32;0.50;;;0.40;;
21822;SDS011;11074;48.596;9.238;2022-09-17T00:57:03;0.45;;;0.35;;
21822;SDS011;11074;48.596;9.238;2022-09-17T00:59:28;1.77;;;0.82;;
21822;SDS011;11074;48.596;9.238;2022-09-17T01:01:54;1.75;;;0.50;;
21822;SDS011;11074;48.596;9.238;2022-09-17T01:04:29;1.38;;;0.65;;
21822;SDS011;11074;48.596;9.238;2022-09-17T01:07:22;0.70;;;0.43;;
21822;SDS011;11074;48.596;9.238;2022-09-17T01:21:56;0.57;;;0.40;;
21822;SDS011;11074;48.596;9.238;2022-09-17T01:24:47;1.15;;;0.50;;
21822;SDS011;11074;48.596;9.238;2022-09-17T01:30:53;1.60;;;0.45;;
21822;SDS011;11074;48.596;9.238;2022-09-17T01:36:34;1.98;;;0.40;;
21822;SDS011;11074;48.596;9.238;2022-09-17T01:45:06;0.82;;;0.40;;
21822;SDS011;11074;48.596;9.238;2022-09-17T01:47:43;1.70;;;0.55;;
21822;SDS011;11074;48.596;9.238;2022-09-17T01:50:24;1.90;;;0.60;;
21822;SDS011;11074;48.596;9.238;2022-09-17T01:52:57;0.75;;;0.50;;
21822;SDS011;11074;48.596;9.238;2022-09-17T01:55:29;1.90;;;0.38;;
21822;SDS011;11074;48.596;9.238;2022-09-17T01:58:01;1.13;;;0.47;;
21822;SDS011;11074;48.596;9.238;2022-09-17T02:00:35;0.80;;;0.50;;
21822;SDS011;11074;48.596;9.238;2022-09-17T02:03:11;2.25;;;0.60;;
21822;SDS011;11074;48.596;9.238;2022-09-17T02:05:51;1.33;;;0.55;;
21822;SDS011;11074;48.596;9.238;2022-09-17T02:08:25;2.63;;;0.50;;
21822;SDS011;11074;48.596;9.238;2022-09-17T02:11:05;2.97;;;0.43;;
21822;SDS011;11074;48.596;9.238;2022-09-17T02:13:49;3.72;;;0.65;;
21822;SDS011;11074;48.596;9.238;2022-09-17T02:16:40;1.58;;;0.70;;
21822;SDS011;11074;48.596;9.238;2022-09-17T02:19:26;3.10;;;0.60;;
21822;SDS011;11074;48.596;9.238;2022-09-17T02:30:15;1.17;;;0.50;;
21822;SDS011;11074;48.596;9.238;2022-09-17T02:32:42;1.42;;;0.50;;
21822;SDS011;11074;48.596;9.238;2022-09-17T02:35:09;2.85;;;0.60;;
21822;SDS011;11074;48.596;9.238;2022-09-17T02:37:37;0.77;;;0.57;;
21822;SDS011;11074;48.596;9.238;2022-09-17T02:40:08;1.17;;;0.60;;
21822;SDS011;11074;48.596;9.238;2022-09-17T02:42:52;0.93;;;0.50;;
21822;SDS011;11074;48.596;9.238;2022-09-17T02:46:00;1.10;;;0.52;;
21822;SDS011;11074;48.596;9.238;2022-09-17T02:54:50;1.85;;;0.80;;
21822;SDS011;11074;48.596;9.238;2022-09-17T02:57:40;2.50;;;0.70;;
21822;SDS011;11074;48.596;9.238;2022-09-17T03:00:20;1.23;;;0.60;;
21822;SDS011;11074;48.596;9.238;2022-09-17T03:02:52;0.73;;;0.60;;
21822;SDS011;11074;48.596;9.238;2022-09-17T03:05:30;2.17;;;0.65;;
21822;SDS011;11074;48.596;9.238;2022-09-17T03:07:58;1.20;;;0.60;;
21822;SDS011;11074;48.596;9.238;2022-09-17T03:10:24;4.43;;;0.60;;
21822;SDS011;11074;48.596;9.238;2022-09-17T03:12:57;2.63;;;0.77;;
21822;SDS011;11074;48.596;9.238;2022-09-17T03:15:23;3.05;;;0.60;;
21822;SDS011;11074;48.596;9.238;2022-09-17T03:17:49;0.80;;;0.50;;
21822;SDS011;11074;48.596;9.238;2022-09-17T03:20:15;1.08;;;0.60;;
21822;SDS011;11074;48.596;9.238;2022-09-17T03:22:41;2.00;;;0.80;;
21822;SDS011;11074;48.596;9.238;2022-09-17T03:25:07;2.05;;;0.63;;
21822;SDS011;11074;48.596;9.238;2022-09-17T03:27:34;1.90;;;0.60;;
21822;SDS011;11074;48.596;9.238;2022-09-17T03:30:00;2.72;;;0.63;;
21822;SDS011;11074;48.596;9.238;2022-09-17T03:32:25;3.60;;;0.65;;
21822;SDS011;11074;48.596;9.238;2022-09-17T03:34:51;2.35;;;0.63;;
21822;SDS011;11074;48.596;9.238;2022-09-17T03:37:18;1.73;;;0.70;;
21822;SDS011;11074;48.596;9.238;2022-09-17T03:39:44;2.55;;;0.77;;
21822;SDS011;11074;48.596;9.238;2022-09-17T03:42:10;1.13;;;0.63;;
21822;SDS011;11074;48.596;9.238;2022-09-17T03:44:36;2.58;;;0.70;;
21822;SDS011;11074;48.596;9.238;2022-09-17T03:47:01;2.03;;;0.82;;
21822;SDS011;11074;48.596;9.238;2022-09-17T03:49:28;1.42;;;0.70;;
21822;SDS011;11074;48.596;9.238;2022-09-17T03:51:53;1.55;;;0.70;;
21822;SDS011;11074;48.596;9.238;2022-09-17T03:54:19;1.98;;;0.65;;
21822;SDS011;11074;48.596;9.238;2022-09-17T03:56:45;2.97;;;0.70;;
21822;SDS011;11074;48.596;9.238;2022-09-17T03:59:10;2.20;;;0.80;;
21822;SDS011;11074;48.596;9.238;2022-09-17T04:01:36;2.03;;;0.65;;
21822;SDS011;11074;48.596;9.238;2022-09-17T04:04:02;2.42;;;0.80;;
21822;SDS011;11074;48.596;9.238;2022-09-17T04:06:28;2.00;;;0.75;;
21822;SDS011;11074;48.596;9.238;2022-09-17T04:08:54;2.78;;;0.82;;
21822;SDS011;11074;48.596;9.238;2022-09-17T04:11:20;2.22;;;0.75;;
21822;SDS011;11074;48.596;9.238;2022-09-17T04:13:47;5.00;;;0.80;;
21822;SDS011;11074;48.596;9.238;2022-09-17T04:16:12;3.67;;;0.68;;
21822;SDS011;11074;48.596;9.238;2022-09-17T04:18:38;3.20;;;0.70;;
21822;SDS011;11074;48.596;9.238;2022-09-17T04:21:04;1.77;;;0.70;;
21822;SDS011;11074;48.596;9.238;2022-09-17T04:23:30;1.40;;;0.65;;
21822;SDS011;11074;48.596;9.238;2022-09-17T04:25:56;3.00;;;0.90;;
21822;SDS011;11074;48.596;9.238;2022-09-17T04:28:22;1.45;;;0.60;;
21822;SDS011;11074;48.596;9.238;2022-09-17T04:30:48;4.28;;;0.98;;
21822;SDS011;11074;48.596;9.238;2022-09-17T04:33:16;1.30;;;0.80;;
21822;SDS011;11074;48.596;9.238;2022-09-17T04:35:42;2.75;;;0.80;;
21822;SDS011;11074;48.596;9.238;2022-09-17T04:38:07;4.72;;;0.88;;
21822;SDS011;11074;48.596;9.238;2022-09-17T04:40:34;1.83;;;0.95;;
21822;SDS011;11074;48.596;9.238;2022-09-17T04:43:00;2.88;;;0.70;;
21822;SDS011;11074;48.596;9.238;2022-09-17T04:45:27;2.80;;;0.70;;
21822;SDS011;11074;48.596;9.238;2022-09-17T04:47:54;1.50;;;0.77;;
21822;SDS011;11074;48.596;9.238;2022-09-17T04:50:20;3.55;;;0.73;;
21822;SDS011;11074;48.596;9.238;2022-09-17T04:52:47;1.88;;;0.70;;
21822;SDS011;11074;48.596;9.238;2022-09-17T05:23:00;4.35;;;0.80;;
21822;SDS011;11074;48.596;9.238;2022-09-17T05:25:26;3.63;;;0.80;;
21822;SDS011;11074;48.596;9.238;2022-09-17T05:27:52;2.47;;;1.00;;
21822;SDS011;11074;48.596;9.238;2022-09-17T05:30:18;5.55;;;0.73;;
21822;SDS011;11074;48.596;9.238;2022-09-17T05:32:44;3.85;;;1.23;;
21822;SDS011;11074;48.596;9.238;2022-09-17T05:35:10;2.28;;;0.65;;
21822;SDS011;11074;48.596;9.238;2022-09-17T05:56:37;3.45;;;1.10;;
21822;SDS011;11074;48.596;9.238;2022-09-17T05:59:03;2.50;;;1.23;;
21822;SDS011;11074;48.596;9.238;2022-09-17T06:01:32;4.28;;;1.20;;
21822;SDS011;11074;48.596;9.238;2022-09-17T06:04:10;3.15;;;1.17;;
21822;SDS011;11074;48.596;9.238;2022-09-17T06:14:11;2.20;;;0.90;;
21822;SDS011;11074;48.596;9.238;2022-09-17T06:16:49;1.92;;;0.70;;
21822;SDS011;11074;48.596;9.238;2022-09-17T06:40:19;4.43;;;1.25;;
21822;SDS011;11074;48.596;9.238;2022-09-17T06:46:14;2.40;;;0.80;;
21822;SDS011;11074;48.596;9.238;2022-09-17T06:49:16;3.20;;;1.10;;
21822;SDS011;11074;48.596;9.238;2022-09-17T06:51:43;4.80;;;1.08;;
21822;SDS011;11074;48.596;9.238;2022-09-17T06:54:09;3.15;;;0.80;;
21822;SDS011;11074;48.596;9.238;2022-09-17T06:56:36;2.53;;;0.90;;
21822;SDS011;11074;48.596;9.238;2022-09-17T06:59:01;3.28;;;1.10;;
21822;SDS011;11074;48.596;9.238;2022-09-17T07:01:27;2.75;;;0.77;;
21822;SDS011;11074;48.596;9.238;2022-09-17T07:03:53;3.85;;;0.93;;
21822;SDS011;11074;48.596;9.238;2022-09-17T07:06:19;6.20;;;1.10;;
21822;SDS011;11074;48.596;9.238;2022-09-17T07:08:45;2.40;;;0.90;;
21822;SDS011;11074;48.596;9.238;2022-09-17T07:11:11;3.70;;;1.00;;
21822;SDS011;11074;48.596;9.238;2022-09-17T07:13:39;2.63;;;0.93;;
21822;SDS011;11074;48.596;9.238;2022-09-17T07:16:06;4.07;;;1.17;;
21822;SDS011;11074;48.596;9.238;2022-09-17T07:18:33;3.47;;;0.90;;
21822;SDS011;11074;48.596;9.238;2022-09-17T07:20:59;3.00;;;1.00;;
21822;SDS011;11074;48.596;9.238;2022-09-17T07:23:29;4.50;;;1.08;;
21822;SDS011;11074;48.596;9.238;2022-09-17T07:25:58;6.20;;;1.48;;
21822;SDS011;11074;48.596;9.238;2022-09-17T07:28:28;7.28;;;1.23;;
21822;SDS011;11074;48.596;9.238;2022-09-17T07:30:54;2.22;;;0.88;;
21822;SDS011;11074;48.596;9.238;2022-09-17T07:33:21;4.50;;;1.00;;
21822;SDS011;11074;48.596;9.238;2022-09-17T07:35:57;3.63;;;1.30;;
21822;SDS011;11074;48.596;9.238;2022-09-17T07:38:29;4.75;;;1.10;;
21822;SDS011;11074;48.596;9.238;2022-09-17T07:41:02;5.10;;;1.05;;
21822;SDS011;11074;48.596;9.238;2022-09-17T07:43:32;6.07;;;1.20;;
21822;SDS011;11074;48.596;9.238;2022-09-17T07:46:00;2.47;;;0.90;;
21822;SDS011;11074;48.596;9.238;2022-09-17T07:48:32;6.63;;;1.42;;
21822;SDS011;11074;48.596;9.238;2022-09-17T07:51:04;4.25;;;1.17;;
21822;SDS011;11074;48.596;9.238;2022-09-17T07:54:03;1.95;;;1.00;;
21822;SDS011;11074;48.596;9.238;2022-09-17T07:56:31;3.58;;;1.00;;
21822;SDS011;11074;48.596;9.238;2022-09-17T07:58:56;4.15;;;1.02;;
21822;SDS011;11074;48.596;9.238;2022-09-17T08:05:07;3.75;;;0.95;;
21822;SDS011;11074;48.596;9.238;2022-09-17T08:14:11;4.13;;;1.05;;
21822;SDS011;11074;48.596;9.238;2022-09-17T08:16:45;1.63;;;0.60;;
21822;SDS011;11074;48.596;9.238;2022-09-17T08:19:11;2.72;;;1.10;;
21822;SDS011;11074;48.596;9.238;2022-09-17T08:21:37;2.92;;;1.10;;
21822;SDS011;11074;48.596;9.238;2022-09-17T08:24:03;4.47;;;1.00;;
21822;SDS011;11074;48.596;9.238;2022-09-17T08:26:29;3.85;;;1.27;;
21822;SDS011;11074;48.596;9.238;2022-09-17T08:28:55;5.55;;;1.15;;
21822;SDS011;11074;48.596;9.238;2022-09-17T08:31:22;3.55;;;0.93;;
21822;SDS011;11074;48.596;9.238;2022-09-17T08:33:50;3.20;;;1.10;;
21822;SDS011;11074;48.596;9.238;2022-09-17T08:36:17;3.00;;;0.98;;
21822;SDS011;11074;48.596;9.238;2022-09-17T08:38:45;5.00;;;0.90;;
21822;SDS011;11074;48.596;9.238;2022-09-17T08:44:21;2.25;;;0.90;;
21822;SDS011;11074;48.596;9.238;2022-09-17T08:46:58;2.85;;;1.00;;
21822;SDS011;11074;48.596;9.238;2022-09-17T08:49:40;3.22;;;1.10;;
21822;SDS011;11074;48.596;9.238;2022-09-17T08:57:53;3.17;;;1.05;;
21822;SDS011;11074;48.596;9.238;2022-09-17T09:06:03;3.28;;;1.27;;
21822;SDS011;11074;48.596;9.238;2022-09-17T09:11:28;5.07;;;1.30;;
21822;SDS011;11074;48.596;9.238;2022-09-17T09:14:39;8.55;;;1.60;;
21822;SDS011;11074;48.596;9.238;2022-09-17T09:17:04;3.80;;;1.17;;
21822;SDS011;11074;48.596;9.238;2022-09-17T09:19:43;2.67;;;1.08;;
21822;SDS011;11074;48.596;9.238;2022-09-17T09:25:30;3.63;;;1.20;;
21822;SDS011;11074;48.596;9.238;2022-09-17T09:28:09;3.28;;;1.23;;
21822;SDS011;11074;48.596;9.238;2022-09-17T09:31:15;6.70;;;1.40;;
21822;SDS011;11074;48.596;9.238;2022-09-17T09:34:12;7.05;;;1.42;;
21822;SDS011;11074;48.596;9.238;2022-09-17T09:36:40;7.35;;;1.42;;
21822;SDS011;11074;48.596;9.238;2022-09-17T09:39:12;6.35;;;1.38;;
21822;SDS011;11074;48.596;9.238;2022-09-17T09:42:15;8.68;;;1.63;;
21822;SDS011;11074;48.596;9.238;2022-09-17T09:45:01;7.80;;;1.50;;
21822;SDS011;11074;48.596;9.238;2022-09-17T09:53:51;7.38;;;1.50;;
21822;SDS011;11074;48.596;9.238;2022-09-17T10:00:29;5.00;;;1.70;;
21822;SDS011;11074;48.596;9.238;2022-09-17T10:06:16;6.60;;;2.03;;
21822;SDS011;11074;48.596;9.238;2022-09-17T10:13:03;12.43;;;2.25;;
21822;SDS011;11074;48.596;9.238;2022-09-17T10:15:46;6.70;;;2.03;;
21822;SDS011;11074;48.596;9.238;2022-09-17T10:18:19;5.95;;;1.88;;
21822;SDS011;11074;48.596;9.238;2022-09-17T10:24:51;9.10;;;2.03;;
21822;SDS011;11074;48.596;9.238;2022-09-17T10:27:24;10.07;;;2.05;;
21822;SDS011;11074;48.596;9.238;2022-09-17T10:36:06;9.18;;;1.88;;
21822;SDS011;11074;48.596;9.238;2022-09-17T10:38:42;6.00;;;2.00;;
21822;SDS011;11074;48.596;9.238;2022-09-17T10:41:20;6.50;;;1.75;;
21822;SDS011;11074;48.596;9.238;2022-09-17T10:43:47;8.65;;;2.00;;
21822;SDS011;11074;48.596;9.238;2022-09-17T10:49:36;7.70;;;1.50;;
21822;SDS011;11074;48.596;9.238;2022-09-17T10:55:07;6.78;;;1.45;;
21822;SDS011;11074;48.596;9.238;2022-09-17T11:00:50;4.40;;;1.60;;
21822;SDS011;11074;48.596;9.238;2022-09-17T11:24:04;6.68;;;1.30;;
21822;SDS011;11074;48.596;9.238;2022-09-17T11:27:15;6.32;;;1.20;;
21822;SDS011;11074;48.596;9.238;2022-09-17T11:32:56;5.38;;;1.83;;
21822;SDS011;11074;48.596;9.238;2022-09-17T11:39:14;7.18;;;3.08;;
21822;SDS011;11074;48.596;9.238;2022-09-17T11:45:14;5.30;;;1.85;;
21822;SDS011;11074;48.596;9.238;2022-09-17T11:50:49;4.57;;;1.70;;
21822;SDS011;11074;48.596;9.238;2022-09-17T11:53:30;3.20;;;0.90;;
21822;SDS011;11074;48.596;9.238;2022-09-17T11:56:24;4.05;;;0.90;;
21822;SDS011;11074;48.596;9.238;2022-09-17T12:02:25;3.58;;;1.15;;
21822;SDS011;11074;48.596;9.238;2022-09-17T12:11:16;3.30;;;0.70;;
21822;SDS011;11074;48.596;9.238;2022-09-17T12:13:53;4.70;;;0.80;;
21822;SDS011;11074;48.596;9.238;2022-09-17T12:16:38;2.33;;;0.70;;
21822;SDS011;11074;48.596;9.238;2022-09-17T12:19:21;3.65;;;0.90;;
21822;SDS011;11074;48.596;9.238;2022-09-17T12:22:08;1.77;;;0.55;;
21822;SDS011;11074;48.596;9.238;2022-09-17T12:24:43;2.85;;;0.88;;
21822;SDS011;11074;48.596;9.238;2022-09-17T12:30:13;5.22;;;1.00;;
21822;SDS011;11074;48.596;9.238;2022-09-17T12:48:18;4.38;;;0.93;;
21822;SDS011;11074;48.596;9.238;2022-09-17T12:54:17;3.08;;;0.80;;
21822;SDS011;11074;48.596;9.238;2022-09-17T13:00:05;4.10;;;0.75;;
21822;SDS011;11074;48.596;9.238;2022-09-17T13:05:59;3.15;;;0.80;;
21822;SDS011;11074;48.596;9.238;2022-09-17T13:12:02;5.25;;;0.90;;
21822;SDS011;11074;48.596;9.238;2022-09-17T13:17:32;3.20;;;0.77;;
21822;SDS011;11074;48.596;9.238;2022-09-17T13:23:02;5.78;;;0.95;;
21822;SDS011;11074;48.596;9.238;2022-09-17T13:25:29;2.53;;;0.75;;
21822;SDS011;11074;48.596;9.238;2022-09-17T13:30:59;6.00;;;1.65;;
21822;SDS011;11074;48.596;9.238;2022-09-17T13:39:09;4.05;;;0.80;;
21822;SDS011;11074;48.596;9.238;2022-09-17T13:47:49;3.78;;;1.13;;
21822;SDS011;11074;48.596;9.238;2022-09-17T13:50:27;3.00;;;1.65;;
21822;SDS011;11074;48.596;9.238;2022-09-17T13:53:04;2.10;;;1.15;;
21822;SDS011;11074;48.596;9.238;2022-09-17T13:56:03;3.85;;;1.20;;
21822;SDS011;11074;48.596;9.238;2022-09-17T13:59:30;3.45;;;2.35;;
21822;SDS011;11074;48.596;9.238;2022-09-17T14:01:59;3.20;;;1.42;;
21822;SDS011;11074;48.596;9.238;2022-09-17T14:10:04;2.85;;;1.58;;
21822;SDS011;11074;48.596;9.238;2022-09-17T14:12:59;2.42;;;1.20;;
21822;SDS011;11074;48.596;9.238;2022-09-17T14:15:53;3.53;;;1.10;;
21822;SDS011;11074;48.596;9.238;2022-09-17T14:20:51;1.95;;;1.00;;
21822;SDS011;11074;48.596;9.238;2022-09-17T14:23:19;3.25;;;1.10;;
21822;SDS011;11074;48.596;9.238;2022-09-17T14:25:47;2.53;;;1.00;;
21822;SDS011;11074;48.596;9.238;2022-09-17T14:28:38;1.58;;;0.80;;
21822;SDS011;11074;48.596;9.238;2022-09-17T14:31:41;3.60;;;1.02;;
21822;SDS011;11074;48.596;9.238;2022-09-17T14:34:10;2.03;;;0.80;;
21822;SDS011;11074;48.596;9.238;2022-09-17T14:36:57;3.90;;;0.90;;
21822;SDS011;11074;48.596;9.238;2022-09-17T14:39:25;2.75;;;0.80;;
21822;SDS011;11074;48.596;9.238;2022-09-17T14:42:04;1.77;;;0.70;;
21822;SDS011;11074;48.596;9.238;2022-09-17T14:44:45;3.08;;;0.82;;
21822;SDS011;11074;48.596;9.238;2022-09-17T14:47:22;1.27;;;0.63;;
21822;SDS011;11074;48.596;9.238;2022-09-17T14:49:48;2.70;;;1.10;;
21822;SDS011;11074;48.596;9.238;2022-09-17T14:52:28;2.88;;;1.10;;
21822;SDS011;11074;48.596;9.238;2022-09-17T14:57:46;2.67;;;1.48;;
21822;SDS011;11074;48.596;9.238;2022-09-17T15:00:21;3.45;;;1.40;;
21822;SDS011;11074;48.596;9.238;2022-09-17T15:02:59;4.78;;;1.70;;
21822;SDS011;11074;48.596;9.238;2022-09-17T15:05:28;3.20;;;1.60;;
21822;SDS011;11074;48.596;9.238;2022-09-17T15:10:44;4.55;;;1.88;;
21822;SDS011;11074;48.596;9.238;2022-09-17T15:13:18;5.85;;;1.95;;
21822;SDS011;11074;48.596;9.238;2022-09-17T15:16:12;3.95;;;1.73;;
21822;SDS011;11074;48.596;9.238;2022-09-17T15:18:59;7.40;;;3.05;;
21822;SDS011;11074;48.596;9.238;2022-09-17T15:27:30;3.83;;;1.88;;
21822;SDS011;11074;48.596;9.238;2022-09-17T15:32:49;4.90;;;1.55;;
21822;SDS011;11074;48.596;9.238;2022-09-17T15:37:58;3.50;;;1.40;;
21822;SDS011;11074;48.596;9.238;2022-09-17T15:40:43;3.80;;;1.60;;
21822;SDS011;11074;48.596;9.238;2022-09-17T15:45:54;3.38;;;1.23;;
21822;SDS011;11074;48.596;9.238;2022-09-17T15:51:00;4.47;;;1.10;;
21822;SDS011;11074;48.596;9.238;2022-09-17T15:53:31;1.90;;;1.23;;
21822;SDS011;11074;48.596;9.238;2022-09-17T16:08:44;6.10;;;2.28;;
21822;SDS011;11074;48.596;9.238;2022-09-17T16:11:25;4.78;;;2.08;;
21822;SDS011;11074;48.596;9.238;2022-09-17T16:13:54;3.78;;;2.10;;
21822;SDS011;11074;48.596;9.238;2022-09-17T16:16:33;5.75;;;2.45;;
21822;SDS011;11074;48.596;9.238;2022-09-17T16:19:04;4.80;;;2.30;;
21822;SDS011;11074;48.596;9.238;2022-09-17T16:21:30;3.83;;;2.40;;
21822;SDS011;11074;48.596;9.238;2022-09-17T16:23:56;4.65;;;2.20;;
21822;SDS011;11074;48.596;9.238;2022-09-17T16:26:24;4.68;;;1.88;;
21822;SDS011;11074;48.596;9.238;2022-09-17T16:28:59;5.70;;;2.08;;
21822;SDS011;11074;48.596;9.238;2022-09-17T16:31:30;2.60;;;1.42;;
21822;SDS011;11074;48.596;9.238;2022-09-17T16:33:57;4.75;;;1.88;;
21822;SDS011;11074;48.596;9.238;2022-09-17T16:36:24;3.72;;;1.40;;
21822;SDS011;11074;48.596;9.238;2022-09-17T16:38:51;4.05;;;1.35;;
21822;SDS011;11074;48.596;9.238;2022-09-17T16:41:16;3.72;;;1.98;;
21822;SDS011;11074;48.596;9.238;2022-09-17T16:43:42;6.32;;;3.20;;
21822;SDS011;11074;48.596;9.238;2022-09-17T16:46:08;6.03;;;2.80;;
21822;SDS011;11074;48.596;9.238;2022-09-17T16:48:35;3.42;;;2.20;;
21822;SDS011;11074;48.596;9.238;2022-09-17T16:51:06;4.05;;;1.88;;
21822;SDS011;11074;48.596;9.238;2022-09-17T16:53:32;5.00;;;2.40;;
21822;SDS011;11074;48.596;9.238;2022-09-17T16:55:58;3.05;;;1.38;;
21822;SDS011;11074;48.596;9.238;2022-09-17T16:58:24;4.20;;;1.45;;
21822;SDS011;11074;48.596;9.238;2022-09-17T17:00:50;3.67;;;1.40;;
21822;SDS011;11074;48.596;9.238;2022-09-17T17:03:16;3.30;;;1.20;;
21822;SDS011;11074;48.596;9.238;2022-09-17T17:05:43;4.38;;;1.77;;
21822;SDS011;11074;48.596;9.238;2022-09-17T17:08:09;3.28;;;1.98;;
21822;SDS011;11074;48.596;9.238;2022-09-17T17:10:36;4.80;;;1.40;;
21822;SDS011;11074;48.596;9.238;2022-09-17T17:13:03;3.00;;;1.30;;
21822;SDS011;11074;48.596;9.238;2022-09-17T17:15:29;2.70;;;0.90;;
21822;SDS011;11074;48.596;9.238;2022-09-17T17:17:55;3.20;;;1.20;;
21822;SDS011;11074;48.596;9.238;2022-09-17T17:20:21;3.55;;;0.98;;
21822;SDS011;11074;48.596;9.238;2022-09-17T17:22:47;2.92;;;1.10;;
21822;SDS011;11074;48.596;9.238;2022-09-17T17:25:16;2.45;;;1.02;;
21822;SDS011;11074;48.596;9.238;2022-09-17T17:27:43;2.08;;;1.02;;
21822;SDS011;11074;48.596;9.238;2022-09-17T17:32:41;3.15;;;1.42;;
21822;SDS011;11074;48.596;9.238;2022-09-17T17:35:08;3.25;;;1.25;;
21822;SDS011;11074;48.596;9.238;2022-09-17T17:37:34;3.58;;;1.23;;
21822;SDS011;11074;48.596;9.238;2022-09-17T17:40:00;2.60;;;1.40;;
21822;SDS011;11074;48.596;9.238;2022-09-17T17:42:32;3.70;;;2.03;;
21822;SDS011;11074;48.596;9.238;2022-09-17T17:45:02;3.75;;;1.70;;
21822;SDS011;11074;48.596;9.238;2022-09-17T17:47:28;3.72;;;1.48;;
21822;SDS011;11074;48.596;9.238;2022-09-17T17:49:54;3.85;;;1.30;;
21822;SDS011;11074;48.596;9.238;2022-09-17T17:52:20;2.72;;;1.38;;
21822;SDS011;11074;48.596;9.238;2022-09-17T17:54:46;2.90;;;1.38;;
21822;SDS011;11074;48.596;9.238;2022-09-17T17:57:11;4.30;;;1.77;;
21822;SDS011;11074;48.596;9.238;2022-09-17T17:59:37;2.70;;;1.25;;
21822;SDS011;11074;48.596;9.238;2022-09-17T18:02:03;3.42;;;1.52;;
21822;SDS011;11074;48.596;9.238;2022-09-17T18:04:28;4.28;;;2.05;;
21822;SDS011;11074;48.596;9.238;2022-09-17T18:06:54;4.45;;;2.20;;
21822;SDS011;11074;48.596;9.238;2022-09-17T18:09:20;3.78;;;1.98;;
21822;SDS011;11074;48.596;9.238;2022-09-17T18:11:45;4.03;;;1.95;;
21822;SDS011;11074;48.596;9.238;2022-09-17T18:14:11;5.75;;;1.45;;
21822;SDS011;11074;48.596;9.238;2022-09-17T18:16:37;2.47;;;1.38;;
21822;SDS011;11074;48.596;9.238;2022-09-17T18:19:04;5.05;;;1.52;;
21822;SDS011;11074;48.596;9.238;2022-09-17T18:21:30;3.55;;;1.30;;
21822;SDS011;11074;48.596;9.238;2022-09-17T18:23:58;3.95;;;1.60;;
21822;SDS011;11074;48.596;9.238;2022-09-17T18:26:25;4.70;;;1.73;;
21822;SDS011;11074;48.596;9.238;2022-09-17T18:28:52;5.40;;;2.10;;
21822;SDS011;11074;48.596;9.238;2022-09-17T18:31:31;5.85;;;1.90;;
21822;SDS011;11074;48.596;9.238;2022-09-17T18:34:06;3.70;;;2.00;;
21822;SDS011;11074;48.596;9.238;2022-09-17T18:36:35;4.05;;;1.95;;
21822;SDS011;11074;48.596;9.238;2022-09-17T18:39:04;3.90;;;1.92;;
21822;SDS011;11074;48.596;9.238;2022-09-17T18:41:35;5.50;;;1.73;;
21822;SDS011;11074;48.596;9.238;2022-09-17T18:44:04;4.18;;;1.50;;
21822;SDS011;11074;48.596;9.238;2022-09-17T18:46:31;3.90;;;1.45;;
21822;SDS011;11074;48.596;9.238;2022-09-17T18:48:57;3.92;;;1.35;;
21822;SDS011;11074;48.596;9.238;2022-09-17T18:51:24;5.32;;;1.70;;
21822;SDS011;11074;48.596;9.238;2022-09-17T18:53:51;4.70;;;1.58;;
21822;SDS011;11074;48.596;9.238;2022-09-17T18:56:19;3.03;;;1.50;;
21822;SDS011;11074;48.596;9.238;2022-09-17T18:58:49;3.88;;;1.65;;
21822;SDS011;11074;48.596;9.238;2022-09-17T19:01:17;2.70;;;1.40;;
21822;SDS011;11074;48.596;9.238;2022-09-17T19:03:46;4.10;;;1.70;;
21822;SDS011;11074;48.596;9.238;2022-09-17T19:06:12;4.35;;;1.92;;
21822;SDS011;11074;48.596;9.238;2022-09-17T19:08:40;4.80;;;1.75;;
21822;SDS011;11074;48.596;9.238;2022-09-17T19:11:07;2.60;;;1.33;;
21822;SDS011;11074;48.596;9.238;2022-09-17T19:13:36;4.05;;;2.17;;
21822;SDS011;11074;48.596;9.238;2022-09-17T19:16:05;4.72;;;1.98;;
21822;SDS011;11074;48.596;9.238;2022-09-17T19:18:32;5.00;;;2.20;;
21822;SDS011;11074;48.596;9.238;2022-09-17T19:21:03;5.32;;;2.40;;
21822;SDS011;11074;48.596;9.238;2022-09-17T19:23:33;5.05;;;2.67;;
21822;SDS011;11074;48.596;9.238;2022-09-17T19:26:07;4.25;;;2.80;;
21822;SDS011;11074;48.596;9.238;2022-09-17T19:28:41;5.18;;;2.67;;
21822;SDS011;11074;48.596;9.238;2022-09-17T19:31:09;7.05;;;3.28;;
21822;SDS011;11074;48.596;9.238;2022-09-17T19:33:37;5.18;;;2.22;;
21822;SDS011;11074;48.596;9.238;2022-09-17T19:36:04;5.65;;;1.90;;
21822;SDS011;11074;48.596;9.238;2022-09-17T19:38:35;3.78;;;1.67;;
21822;SDS011;11074;48.596;9.238;2022-09-17T19:41:06;3.63;;;1.40;;
21822;SDS011;11074;48.596;9.238;2022-09-17T19:43:41;1.60;;;0.90;;
21822;SDS011;11074;48.596;9.238;2022-09-17T19:46:13;2.33;;;0.90;;
21822;SDS011;11074;48.596;9.238;2022-09-17T19:48:45;2.13;;;1.00;;
21822;SDS011;11074;48.596;9.238;2022-09-17T19:51:19;2.25;;;0.90;;
21822;SDS011;11074;48.596;9.238;2022-09-17T19:53:48;2.78;;;0.90;;
21822;SDS011;11074;48.596;9.238;2022-09-17T19:56:16;2.25;;;0.90;;
21822;SDS011;11074;48.596;9.238;2022-09-17T19:58:56;2.20;;;0.85;;
21822;SDS011;11074;48.596;9.238;2022-09-17T20:01:22;5.03;;;1.10;;
21822;SDS011;11074;48.596;9.238;2022-09-17T20:03:48;1.85;;;0.93;;
21822;SDS011;11074;48.596;9.238;2022-09-17T20:06:14;4.05;;;1.50;;
21822;SDS011;11074;48.596;9.238;2022-09-17T20:11:14;2.80;;;1.10;;
21822;SDS011;11074;48.596;9.238;2022-09-17T20:13:41;2.95;;;1.00;;
21822;SDS011;11074;48.596;9.238;2022-09-17T20:18:45;2.17;;;0.90;;
21822;SDS011;11074;48.596;9.238;2022-09-17T20:21:13;4.03;;;1.00;;
21822;SDS011;11074;48.596;9.238;2022-09-17T20:23:42;1.50;;;0.90;;
21822;SDS011;11074;48.596;9.238;2022-09-17T20:26:08;2.05;;;1.00;;
21822;SDS011;11074;48.596;9.238;2022-09-17T20:28:38;2.53;;;0.80;;
21822;SDS011;11074;48.596;9.238;2022-09-17T20:31:09;2.13;;;0.90;;
21822;SDS011;11074;48.596;9.238;2022-09-17T20:33:41;4.30;;;1.00;;
21822;SDS011;11074;48.596;9.238;2022-09-17T20:36:09;2.65;;;1.00;;
21822;SDS011;11074;48.596;9.238;2022-09-17T20:38:38;1.30;;;0.80;;
21822;SDS011;11074;48.596;9.238;2022-09-17T20:41:04;2.08;;;0.80;;
21822;SDS011;11074;48.596;9.238;2022-09-17T20:43:37;2.92;;;1.20;;
21822;SDS011;11074;48.596;9.238;2022-09-17T20:46:06;3.03;;;1.20;;
21822;SDS011;11074;48.596;9.238;2022-09-17T20:48:34;4.13;;;1.30;;